Main page
METAR-TAF:

METAR-TAF

Airports :

RAF Linton-on-Ouse

Linton-on-Ouse, England

latitude: 54-03N, longitude: 001-15W, elevation: 16 m

Current weather observation

The report was made 27 minutes ago, at 21:50 UTC
Wind 3 kt from the West/Southwest
Temperature -1°C
Humidity 93%
Pressure 996 hPa
Visibility: 0650 m

METAR: EGXU 222150Z AUTO 24003KT 0650 // FEW001/// M01/M02 Q0996

Time: 22:17 (22:17 UTC)

Forecast

The report was made 8 hours and 27 minutes ago, at 13:50 UTC
Forecast valid from 22 at 14 UTC to 22 at 19 UTC
Wind 8 kt from the West
Visibility 10 km or more
Few clouds at a height of 2000 ft, Cumulonimbus.
Probability 30% :
Temporary
from 22 at 14 UTC to 22 at 17 UTC
Visibility: 4000 m
Broken clouds at a height of 1400 ft, Cumulonimbus.
light rain showers, snow

TAF: EGXU 221350Z 2214/2219 26008KT 9999 FEW020CB PROB30 TEMPO 2214/2217 4000 -SHRASN BKN014CB

Weather observations and forecasts of more than 4000 airports (METAR and TAF reports).

The available stations are represented by yellow and red dots on the map.

Hover mouse over dot to see the name of the station.

Then click to see weather observations and forecasts.

To change the map : click on the green buttons with a black cross to zoom in, on the green button with a dash to zoom out, or on the green arrows for adjacent maps.


METAR-TAF: